• Join FlightAware (Why Join?)
  • Login
  • US Flag 
12:35AM EDT


 

Airport Tracker/Info


-or-


 

Live Flight TrackerFlight Track Log ✈ N272AY ✈ 09-Apr-2013 ✈ KCLT - EGLL / LHR

Flight Track Log - Related Links

Times and Time Zones

All times are in EDT time to prevent confusion due to time zone crossing. See the N272AY flight status page for this flight to view local times or setup timezone preferences in your user account.

Time Position Orientation Groundspeed Altitude Reporting Facility
EDT Latitude Longitude Course Direction KTS MPH feet Rate Location/Type
07:15PM 35.1908 -80.9356 72° East 171 197 1,600  Level Atlanta Center
07:16PM 35.1297 -80.9075 159° South 264 304 3,400 1,920 Climbing Atlanta Center
07:17PM 35.0922 -80.8353 122° Southeast 300 345 5,900 2,280 Climbing Atlanta Center
07:18PM 35.2756 -80.5127 30° Northeast  Level FlightAware Approximate
07:18PM 35.1022 -80.7358 83° East 306 352 8,000  Level Atlanta Center
07:19PM 35.3493 -80.4064 72° East  Level FlightAware Approximate
07:19PM 35.1497 -80.6478 57° Northeast 314 361 9,900  Level Atlanta Center
07:20PM 35.3891 -80.2552 72° East  Level FlightAware Approximate
07:20PM 35.2036 -80.5539 55° Northeast 321 369 11,100  Level Atlanta Center
07:21PM 35.2611 -80.4550 55° Northeast 348 400 12,200 1,260 Climbing Atlanta Center
07:22PM 35.3267 -80.3425 54° Northeast 380 437 13,700 1,740 Climbing Atlanta Center
07:24PM 35.4381 -80.1247 58° Northeast 422 486 17,200 1,560 Climbing Washington Center
07:29PM 35.6640 -79.3730 58° Northeast 475 547 24,600 1,380 Climbing FlightAware
07:30PM 35.7080 -79.2640 64° Northeast 481 554 25,400 1,080 Climbing FlightAware
07:31PM 35.7640 -79.1270 63° Northeast 487 560 26,400 900 Climbing FlightAware
07:31PM 35.8040 -79.0270 64° Northeast 495 570 26,900 840 Climbing FlightAware
07:32PM 35.8480 -78.9160 64° Northeast 498 573 27,600 840 Climbing FlightAware
07:33PM 35.8890 -78.8140 64° Northeast 503 579 28,100 780 Climbing FlightAware
07:33PM 35.9310 -78.7080 64° Northeast 508 585 28,700 840 Climbing FlightAware
07:34PM 35.9770 -78.5940 63° Northeast 512 589 29,300 960 Climbing FlightAware
07:35PM 36.0200 -78.4850 64° Northeast 507 583 30,100 1,200 Climbing FlightAware
07:35PM 36.0610 -78.3800 64° Northeast 504 580 30,900 1,020 Climbing FlightAware
07:36PM 36.1060 -78.2660 64° Northeast 503 579 31,600 960 Climbing FlightAware
07:37PM 36.1450 -78.1660 64° Northeast 499 574 32,300 1,320 Climbing FlightAware
07:38PM 36.1910 -78.0500 64° Northeast 484 557 33,500 1,080 Climbing FlightAware
07:38PM 36.2320 -77.9500 63° Northeast 484 557 33,900 540 Climbing FlightAware
07:39PM 36.2940 -77.8560 51° Northeast 481 554 34,300 480 Climbing FlightAware
07:40PM 36.3550 -77.7760 47° Northeast 481 554 34,600 480 Climbing FlightAware
07:40PM 36.4160 -77.6960 47° Northeast 482 555 35,000 240 Climbing FlightAware
07:41PM 36.4870 -77.6020 47° Northeast 483 556 35,000  Level FlightAware
07:42PM 36.5450 -77.5260 46° Northeast 483 556 35,000  Level FlightAware
07:42PM 36.5960 -77.4590 47° Northeast 481 554 35,000  Level FlightAware
07:43PM 36.6600 -77.3760 46° Northeast 481 554 35,000  Level FlightAware
07:44PM 36.7130 -77.3080 46° Northeast 481 554 35,000  Level FlightAware
07:45PM 36.7780 -77.2230 46° Northeast 481 554 35,000  Level FlightAware
07:45PM 36.8310 -77.1550 46° Northeast 481 554 35,000  Level FlightAware
07:46PM 36.8830 -77.0870 46° Northeast 481 554 35,000  Level FlightAware
07:47PM 36.9360 -77.0190 46° Northeast 481 554 35,000  Level FlightAware
07:47PM 36.9880 -76.9510 46° Northeast 481 554 35,000  Level FlightAware
07:48PM 37.1340 -76.7380 49° Northeast 480 552 35,000  Level FlightAware
07:49PM 37.2260 -76.6140 47° Northeast 481 554 35,000  Level FlightAware
07:49PM 37.2485 -76.5825 48° Northeast 480 552 35,000  Level FlightAware ADS-B
07:50PM 37.3116 -76.4946 48° Northeast 481 554 35,000  Level FlightAware ADS-B
07:51PM 37.3583 -76.4254 50° Northeast 485 558 35,000  Level FlightAware ADS-B
07:51PM 37.4129 -76.3445 50° Northeast 486 559 35,000  Level FlightAware ADS-B
07:52PM 37.4591 -76.2759 50° Northeast 488 562 35,000  Level FlightAware ADS-B
07:52PM 37.5041 -76.2091 50° Northeast 489 563 35,000  Level FlightAware ADS-B
07:53PM 37.5592 -76.1269 50° Northeast 490 564 35,000  Level FlightAware ADS-B
07:54PM 37.6500 -75.9910 50° Northeast 481 554 35,000  Level FlightAware
07:55PM 37.7140 -75.8950 50° Northeast 482 555 35,000  Level FlightAware
07:56PM 37.7710 -75.8090 50° Northeast 482 555 35,000  Level FlightAware
07:56PM 37.7888 -75.7824 50° Northeast 488 562 35,000  Level FlightAware ADS-B
07:56PM 37.8377 -75.7085 50° Northeast 488 562 35,000  Level FlightAware ADS-B
07:57PM 37.8834 -75.6394 50° Northeast 488 562 35,000  Level FlightAware ADS-B
07:57PM 37.9297 -75.5692 50° Northeast 489 563 35,000  Level FlightAware ADS-B
07:58PM 38.0170 -75.4360 50° Northeast 482 555 35,000  Level FlightAware
07:59PM 38.0358 -75.4077 50° Northeast 489 563 35,000  Level FlightAware ADS-B
07:59PM 38.0820 -75.3371 50° Northeast 489 563 35,000  Level FlightAware ADS-B
08:00PM 38.1257 -75.2704 50° Northeast 491 565 35,000  Level FlightAware ADS-B
08:00PM 38.1690 -75.2040 50° Northeast 491 565 35,000 180 Level FlightAware ADS-B
08:01PM 38.2133 -75.1359 50° Northeast 495 570 35,200 420 Climbing FlightAware ADS-B
08:01PM 38.2594 -75.0649 50° Northeast 497 572 35,500 480 Climbing FlightAware ADS-B
08:02PM 38.3279 -74.9591 50° Northeast 500 575 35,900 420 Climbing FlightAware ADS-B
08:02PM 38.3726 -74.8898 51° Northeast 502 578 36,100 480 Climbing FlightAware ADS-B
08:03PM 38.4180 -74.8194 51° Northeast 502 578 36,400 480 Climbing FlightAware ADS-B
08:04PM 38.4728 -74.7343 51° Northeast 500 575 36,700 480 Climbing FlightAware ADS-B
08:04PM 38.5206 -74.6597 51° Northeast 498 573 37,000 240 Climbing FlightAware ADS-B
08:05PM 38.5664 -74.5881 51° Northeast 500 575 37,000  Level FlightAware ADS-B
08:05PM 38.6308 -74.4872 51° Northeast 500 575 37,000  Level FlightAware ADS-B
08:06PM 38.6788 -74.4118 51° Northeast 498 573 37,000  Level FlightAware ADS-B
08:06PM 38.7297 -74.3316 51° Northeast 499 574 37,000  Level FlightAware ADS-B
08:07PM 38.7789 -74.2540 51° Northeast 501 577 37,000  Level FlightAware ADS-B
08:08PM 38.8247 -74.1815 51° Northeast 502 578 37,000  Level FlightAware ADS-B
08:08PM 38.8692 -74.1108 51° Northeast 502 578 37,000  Level FlightAware ADS-B
08:09PM 38.9132 -74.0410 51° Northeast 504 580 37,000  Level FlightAware ADS-B
08:09PM 38.9613 -73.9644 51° Northeast 504 580 37,000  Level FlightAware ADS-B
08:10PM 39.0065 -73.8922 51° Northeast 501 577 37,000  Level FlightAware ADS-B
08:10PM 39.0503 -73.8222 51° Northeast 499 574 37,000  Level FlightAware ADS-B
08:11PM 39.0964 -73.7480 51° Northeast 497 572 37,000  Level FlightAware ADS-B
08:11PM 39.1402 -73.6777 51° Northeast 499 574 37,000  Level FlightAware ADS-B
08:12PM 39.1836 -73.6078 51° Northeast 498 573 37,000  Level FlightAware ADS-B
08:12PM 39.2275 -73.5369 51° Northeast 497 572 37,000  Level FlightAware ADS-B
08:13PM 39.2713 -73.4661 51° Northeast 497 572 37,000  Level FlightAware ADS-B
08:13PM 39.3171 -73.3918 51° Northeast 495 570 37,000  Level FlightAware ADS-B
08:14PM 39.3640 -73.3156 51° Northeast 494 568 37,000  Level FlightAware ADS-B
08:14PM 39.4108 -73.2392 52° Northeast 493 567 37,000  Level FlightAware ADS-B
08:15PM 39.4535 -73.1697 51° Northeast 494 568 37,000  Level FlightAware ADS-B
08:15PM 39.4960 -73.1000 52° Northeast 494 568 37,000  Level FlightAware ADS-B
08:16PM 39.5450 -73.0197 52° Northeast 494 568 37,000  Level FlightAware ADS-B
08:16PM 39.5887 -72.9477 52° Northeast 495 570 37,000  Level FlightAware ADS-B
08:17PM 39.6320 -72.8762 52° Northeast 494 568 37,000  Level FlightAware ADS-B
08:17PM 39.6795 -72.7977 52° Northeast 493 567 37,000  Level FlightAware ADS-B
08:18PM 39.7235 -72.7248 52° Northeast 492 566 37,000  Level FlightAware ADS-B
08:19PM 39.7740 -72.6408 52° Northeast 491 565 37,000  Level FlightAware ADS-B
08:19PM 39.8175 -72.5685 52° Northeast 490 564 37,000  Level FlightAware ADS-B
08:20PM 39.8600 -72.4975 52° Northeast 487 560 37,000  Level FlightAware ADS-B
08:20PM 39.9073 -72.4182 52° Northeast 485 558 37,000  Level FlightAware ADS-B
08:21PM 39.9536 -72.3407 52° Northeast 483 556 37,000  Level FlightAware ADS-B
08:21PM 40.0060 -72.2520 52° Northeast 485 558 37,000  Level FlightAware
08:22PM 40.0570 -72.1660 52° Northeast 485 558 37,000  Level FlightAware
08:23PM 40.1250 -72.0520 52° Northeast 482 555 37,000  Level FlightAware
08:24PM 40.1930 -71.9360 52° Northeast 484 557 37,000  Level FlightAware
08:24PM 40.2400 -71.8580 52° Northeast 484 557 37,000  Level FlightAware
08:25PM 40.3260 -71.7100 53° Northeast 476 548 37,000  Level FlightAware
08:26PM 40.3720 -71.6330 52° Northeast 476 548 37,000  Level FlightAware
08:27PM 40.4180 -71.5550 52° Northeast 476 548 37,000  Level FlightAware
08:27PM 40.4640 -71.4780 52° Northeast 476 548 37,000  Level FlightAware
08:28PM 40.5100 -71.4000 52° Northeast 476 548 37,000  Level FlightAware
08:29PM 40.5680 -71.3030 52° Northeast 476 548 37,000  Level FlightAware
08:30PM 40.6140 -71.2250 52° Northeast 476 548 37,000  Level FlightAware
08:30PM 40.6600 -71.1470 52° Northeast 476 548 37,000  Level FlightAware
08:31PM 40.7060 -71.0700 52° Northeast 476 548 37,000  Level FlightAware
08:32PM 40.8190 -70.8510 56° Northeast 461 531 37,000  Level FlightAware
08:32PM 40.8710 -70.7600 53° Northeast 460 529 37,000  Level FlightAware
08:33PM 40.9380 -70.6420 53° Northeast 460 529 37,000  Level FlightAware
08:34PM 41.0000 -70.5320 53° Northeast 447 514 37,000  Level FlightAware
08:35PM 41.0480 -70.4470 53° Northeast 445 512 37,000  Level FlightAware
08:35PM 41.0910 -70.3700 53° Northeast 444 511 37,000  Level FlightAware
08:36PM 41.1380 -70.2830 54° Northeast 444 511 37,000  Level FlightAware
08:37PM 41.1980 -70.1770 53° Northeast 443 510 37,000  Level FlightAware
08:38PM 41.2580 -70.0690 54° Northeast 441 507 37,000 -120 Level FlightAware
08:38PM 41.2970 -69.9940 55° Northeast 450 518 36,900 -120 Descending FlightAware
08:39PM 41.3390 -69.9010 59° Northeast 450 518 36,900 -660 Level FlightAware
08:40PM 41.4040 -69.7640 58° Northeast 467 537 35,900 -900 Descending FlightAware
08:41PM 41.4630 -69.6370 58° Northeast 466 536 35,400 -540 Descending FlightAware
08:41PM 41.5090 -69.5380 58° Northeast 469 540 35,100 -300 Descending FlightAware
08:42PM 41.5590 -69.4290 58° Northeast 470 541 35,000 -120 Descending FlightAware
08:43PM 41.5980 -69.3450 58° Northeast 469 540 35,000  Level FlightAware
08:43PM 41.6540 -69.2240 58° Northeast 473 544 35,000  Level FlightAware
08:44PM 41.7160 -69.0860 59° Northeast 471 542 35,000  Level FlightAware
08:45PM 41.7600 -68.9920 58° Northeast 474 545 35,000  Level FlightAware
08:46PM 41.8220 -68.8550 59° Northeast 471 542 35,000  Level FlightAware
08:47PM 41.8820 -68.7190 59° Northeast 470 541 35,000  Level FlightAware
08:47PM 41.9280 -68.6160 59° Northeast 470 541 35,000  Level FlightAware
08:48PM 41.9720 -68.5180 59° Northeast 470 541 35,000  Level FlightAware
08:49PM 42.0170 -68.4180 59° Northeast 471 542 35,000  Level FlightAware
08:49PM 42.0660 -68.3080 59° Northeast 470 541 35,000  Level FlightAware
08:50PM 42.1170 -68.1930 59° Northeast 473 544 35,000  Level FlightAware
08:51PM 42.1620 -68.0910 59° Northeast 473 544 35,000  Level FlightAware
08:51PM 42.1960 -68.0140 59° Northeast 474 545 35,000  Level FlightAware
08:52PM 42.2520 -67.8850 60° Northeast 474 545 35,000  Level FlightAware
08:53PM 42.3020 -67.7710 59° Northeast 473 544 35,000  Level FlightAware
08:54PM 42.3410 -67.6820 59° Northeast 473 544 35,000  Level FlightAware
08:54PM 42.3850 -67.5820 59° Northeast 473 544 35,000  Level FlightAware
08:55PM 42.4230 -67.4960 59° Northeast 473 544 35,000  Level FlightAware
08:56PM 42.4710 -67.3880 59° Northeast 473 544 35,000  Level FlightAware
08:56PM 42.5090 -67.3010 59° Northeast 473 544 35,000  Level FlightAware
08:57PM 42.5470 -67.2150 59° Northeast 473 544 35,000  Level FlightAware
08:58PM 42.5860 -67.1280 59° Northeast 473 544 35,000  Level FlightAware
08:58PM 42.6240 -67.0420 59° Northeast 473 544 35,000  Level FlightAware
08:59PM 42.6720 -66.9330 59° Northeast 473 544 35,000  Level FlightAware
09:00PM 42.7100 -66.8460 59° Northeast 473 544 35,000  Level FlightAware
09:01PM 42.7490 -66.7600 58° Northeast 473 544 35,000  Level FlightAware
09:01PM 42.7980 -66.4050 79° East 492 566 35,000  Level FlightAware
09:02PM 42.8290 -66.2900 70° East 494 568 35,000  Level FlightAware
09:03PM 42.8620 -66.1710 69° East 494 568 35,000  Level FlightAware
09:03PM 42.8970 -66.0400 70° East 494 568 35,000 120 Level FlightAware
09:04PM 42.9250 -65.9350 70° East 493 567 35,200 180 Climbing FlightAware
09:05PM 42.9640 -65.7910 70° East 489 563 35,300 -120 Climbing FlightAware
09:07PM 43.0360 -65.5210 70° East 496 571 35,000 -120 Descending FlightAware
09:08PM 43.0930 -65.3020 70° East 494 568 35,000  Level FlightAware
09:09PM 43.1560 -65.0610 70° East 497 572 35,000  Level FlightAware
09:10PM 43.2100 -64.8540 70° East 499 574 35,000  Level FlightAware
09:11PM 43.2440 -64.7190 71° East 498 573 35,000  Level FlightAware
09:12PM 43.2780 -64.5870 70° East 497 572 35,000  Level FlightAware
09:13PM 43.3170 -64.4340 71° East 497 572 35,000  Level FlightAware
09:13PM 43.3480 -64.3180 70° East 497 572 35,000  Level FlightAware
09:14PM 43.3770 -64.2090 70° East 497 572 35,000  Level FlightAware
09:15PM 43.4030 -64.1080 70° East 497 572 35,000  Level FlightAware
09:15PM 43.4300 -64.0070 70° East 497 572 35,000  Level FlightAware
09:16PM 43.4570 -63.9060 70° East 497 572 35,000  Level FlightAware
09:17PM 43.4900 -63.7790 70° East 497 572 35,000  Level FlightAware
09:18PM 43.5170 -63.6780 70° East 497 572 35,000  Level FlightAware
09:18PM 43.5440 -63.5770 70° East 497 572 35,000  Level FlightAware
09:19PM 43.5710 -63.4750 70° East 497 572 35,000  Level FlightAware
09:20PM 43.5970 -63.3740 70° East 497 572 35,000  Level FlightAware
09:20PM 43.6310 -63.2470 70° East 497 572 35,000  Level FlightAware
09:21PM 43.6570 -63.1460 70° East 497 572 35,000  Level FlightAware
09:22PM 43.6840 -63.0440 70° East 497 572 35,000  Level FlightAware
09:23PM 43.7333 -62.6333 70° East 480 552 35,000  Level Gander Center
09:24PM 43.7667 -62.4500 76° East 490 564 35,000  Level Gander Center
09:25PM 43.8167 -62.2667 69° East 480 552 35,000  Level Gander Center
09:26PM 43.8500 -62.0833 76° East 480 552 35,000  Level Gander Center
09:27PM 43.9000 -61.9333 65° Northeast 480 552 35,000  Level Gander Center
09:28PM 43.9500 -61.7500 69° East 480 552 35,000  Level Gander Center
09:29PM 43.9833 -61.5667 76° East 480 552 35,000  Level Gander Center
09:30PM 44.0167 -61.4000 74° East 490 564 35,000  Level Gander Center
09:31PM 44.0667 -61.2167 69° East 490 564 35,000 360 Level Gander Center
09:32PM 44.1000 -61.0333 76° East 490 564 35,800 660 Climbing Gander Center
09:33PM 44.1333 -60.8333 77° East 480 552 36,400 600 Climbing Gander Center
09:34PM 44.1833 -60.6833 65° Northeast 490 564 37,000 480 Climbing Gander Center
09:35PM 44.2000 -60.4667 84° East 490 564 37,400 420 Climbing Gander Center
09:36PM 44.2500 -60.3000 67° East 500 575 37,900 420 Climbing Gander Center
09:37PM 44.2833 -60.1167 76° East 500 575 38,300 360 Climbing Gander Center
09:38PM 44.3333 -59.9333 69° East 500 575 38,700 300 Climbing Gander Center
09:39PM 44.3667 -59.7500 76° East 510 587 39,000 120 Climbing Gander Center
09:40PM 44.4167 -59.5500 71° East 510 587 39,000  Level Gander Center
09:41PM 44.4500 -59.3667 76° East 510 587 39,000  Level Gander Center
09:42PM 44.4667 -59.1500 84° East 500 575 39,000  Level Gander Center
09:43PM 44.5167 -59.0000 65° Northeast 500 575 39,000  Level Gander Center
09:44PM 44.5500 -58.7833 78° East 510 587 39,000  Level Gander Center
09:45PM 44.6000 -58.5833 71° East 510 587 39,000  Level Gander Center
09:46PM 44.6167 -58.4000 83° East 510 587 39,000  Level Gander Center
09:47PM 44.6667 -58.2167 69° East 510 587 39,000  Level Gander Center
09:48PM 44.7000 -58.0167 77° East 510 587 39,000  Level Gander Center
09:49PM 44.7333 -57.8333 76° East 510 587 39,000  Level Gander Center
09:50PM 44.7667 -57.6167 78° East 510 587 39,000  Level Gander Center
09:51PM 44.8167 -57.4500 67° East 510 587 39,000  Level Gander Center
09:52PM 44.8333 -57.2667 83° East 510 587 39,000  Level Gander Center
09:53PM 44.8833 -57.0500 72° East 510 587 39,000  Level Gander Center
09:54PM 44.9000 -56.8500 83° East 510 587 39,000  Level Gander Center
09:55PM 44.9500 -56.6667 69° East 510 587 39,000  Level Gander Center
09:56PM 44.9833 -56.4667 77° East 500 575 39,000  Level Gander Center
09:57PM 45.0167 -56.2833 76° East 510 587 39,000  Level Gander Center
09:59PM 45.0833 -55.9000 76° East 510 587 39,000  Level Gander Center
10:00PM 45.1167 -55.7000 77° East 510 587 39,000  Level Gander Center
10:01PM 45.1500 -55.5167 75° East 510 587 39,000  Level Gander Center
10:07PM 45.3640 -54.4030 75° East 505 581 39,000  Level FlightAware
10:07PM 45.3880 -54.2540 77° East 503 579 39,000  Level FlightAware
10:08PM 45.4080 -54.1320 77° East 503 579 39,000  Level FlightAware
10:09PM 45.4310 -54.0010 76° East 503 579 39,000  Level FlightAware
10:09PM 45.4500 -53.8920 76° East 503 579 39,000  Level FlightAware
10:10PM 45.4690 -53.7820 76° East 503 579 39,000  Level FlightAware
10:11PM 45.4880 -53.6730 76° East 503 579 39,000  Level FlightAware
10:11PM 45.5070 -53.5630 76° East 503 579 39,000  Level FlightAware
10:12PM 45.5310 -53.4260 76° East 503 579 39,000  Level FlightAware
10:13PM 45.5500 -53.3170 76° East 503 579 39,000  Level FlightAware
10:14PM 45.5700 -53.2070 75° East 503 579 39,000  Level FlightAware
10:14PM 45.5890 -53.0970 76° East 503 579 39,000  Level FlightAware
10:15PM 45.6080 -52.9880 76° East 503 579 39,000  Level FlightAware
10:16PM 45.6320 -52.8500 76° East 503 579 39,000  Level FlightAware
10:16PM 45.6510 -52.7410 76° East 503 579 39,000  Level FlightAware
10:17PM 45.6700 -52.6310 76° East 503 579 39,000  Level FlightAware
10:18PM 45.6890 -52.5210 76° East 503 579 39,000  Level FlightAware
10:19PM 45.7000 -52.0000 76° East 500 575 39,000  Level Gander Center
10:20PM 45.7333 -51.8000 77° East 500 575 39,000  Level Gander Center
10:21PM 45.7667 -51.6333 74° East 500 575 39,000  Level Gander Center
10:22PM 45.7833 -51.4167 84° East 490 564 39,000  Level Gander Center
10:23PM 45.8167 -51.2333 75° East 500 575 39,000  Level Gander Center
10:24PM 45.8500 -51.0333 76° East 500 575 39,000  Level Gander Center
10:25PM 45.8667 -50.8333 83° East 490 564 39,000  Level Gander Center
10:26PM 45.9000 -50.6667 74° East 490 564 39,000  Level Gander Center
10:27PM 45.9167 -50.4500 84° East 500 575 39,000  Level Gander Center
10:28PM 45.9333 -50.2667 82° East 500 575 39,000  Level Gander Center
10:29PM 45.9667 -50.0667 76° East 490 564 39,000  Level Gander Center
10:30PM 46.0000 -49.8667 76° East 490 564 39,000  Level Gander Center
10:31PM 46.0500 -49.6833 68° East 490 564 39,000  Level Gander Center
10:32PM 46.1000 -49.5167 67° East 490 564 39,000  Level Gander Center
10:33PM 46.1333 -49.3333 75° East 500 575 39,000  Level Gander Center
10:34PM 46.1667 -49.1333 76° East 490 564 39,000  Level Gander Center
10:35PM 46.2167 -48.9500 68° East 500 575 39,000  Level Gander Center
10:36PM 46.2667 -48.7667 68° East 500 575 39,000  Level Gander Center
10:37PM 46.3167 -48.5833 68° East 500 575 39,000  Level Gander Center
10:38PM 46.3500 -48.3833 76° East 500 575 39,000  Level Gander Center
10:39PM 46.4000 -48.2000 68° East 500 575 39,000  Level Gander Center
10:40PM 46.4500 -48.0167 68° East 490 564 39,000  Level Gander Center
10:41PM 46.4833 -47.8333 75° East 480 552 39,000  Level Gander Center
10:42PM 46.5167 -47.6500 75° East 500 575 39,000  Level Gander Center
10:43PM 46.5667 -47.4500 70° East 480 552 39,000  Level Gander Center
10:45PM 46.6333 -47.0833 75° East 480 552 39,000  Level Gander Center
10:48PM 46.7093 -46.7506 71° East  Level FlightAware Approximate
10:55PM 46.9956 -45.4480 72° East  Level FlightAware Approximate
10:56PM 47.0353 -45.2608 73° East  Level FlightAware Approximate
10:57PM 47.0747 -45.0733 73° East  Level FlightAware Approximate
10:58PM 47.1138 -44.8856 73° East  Level FlightAware Approximate
10:59PM 47.1525 -44.6975 73° East  Level FlightAware Approximate
11:00PM 47.1910 -44.5092 73° East  Level FlightAware Approximate
11:01PM 47.2291 -44.3206 73° East  Level FlightAware Approximate
11:02PM 47.2670 -44.1318 73° East  Level FlightAware Approximate
11:03PM 47.3045 -43.9426 74° East  Level FlightAware Approximate
11:04PM 47.3417 -43.7533 74° East  Level FlightAware Approximate
11:05PM 47.3786 -43.5636 74° East  Level FlightAware Approximate
11:06PM 47.4152 -43.3737 74° East  Level FlightAware Approximate
11:07PM 47.4515 -43.1835 74° East  Level FlightAware Approximate
11:08PM 47.4875 -42.9930 74° East  Level FlightAware Approximate
11:09PM 47.5231 -42.8023 74° East  Level FlightAware Approximate
11:10PM 47.5584 -42.6114 75° East  Level FlightAware Approximate
11:11PM 47.5933 -42.4195 75° East  Level FlightAware Approximate
11:12PM 47.6276 -42.2279 75° East  Level FlightAware Approximate
11:13PM 47.6616 -42.0360 75° East  Level FlightAware Approximate
11:14PM 47.6952 -41.8439 75° East  Level FlightAware Approximate
11:15PM 47.7286 -41.6515 75° East  Level FlightAware Approximate
11:16PM 47.7616 -41.4589 76° East  Level FlightAware Approximate
11:17PM 47.7943 -41.2660 76° East  Level FlightAware Approximate
11:18PM 47.8267 -41.0729 76° East  Level FlightAware Approximate
11:19PM 47.8587 -40.8796 76° East  Level FlightAware Approximate
11:20PM 47.8905 -40.6860 76° East  Level FlightAware Approximate
11:21PM 47.9219 -40.4922 76° East  Level FlightAware Approximate
11:22PM 47.9530 -40.2981 76° East  Level FlightAware Approximate
11:23PM 47.9837 -40.1038 77° East  Level FlightAware Approximate
11:24PM 48.0218 -39.9119 70° East  Level FlightAware Approximate
11:25PM 48.0680 -39.7235 70° East  Level FlightAware Approximate
11:26PM 48.1140 -39.5348 70° East  Level FlightAware Approximate
11:27PM 48.1596 -39.3457 70° East  Level FlightAware Approximate
11:28PM 48.2050 -39.1563 70° East  Level FlightAware Approximate
11:29PM 48.2500 -38.9665 70° East  Level FlightAware Approximate
11:30PM 48.2953 -38.7767 70° East  Level FlightAware Approximate
11:31PM 48.3402 -38.5866 70° East  Level FlightAware Approximate
11:32PM 48.3848 -38.3961 71° East  Level FlightAware Approximate
11:33PM 48.4291 -38.2053 71° East  Level FlightAware Approximate
11:34PM 48.4731 -38.0142 71° East  Level FlightAware Approximate
11:35PM 48.5168 -37.8227 71° East  Level FlightAware Approximate
11:36PM 48.5601 -37.6309 71° East  Level FlightAware Approximate
11:37PM 48.6032 -37.4388 71° East  Level FlightAware Approximate
11:38PM 48.6459 -37.2463 71° East  Level FlightAware Approximate
11:39PM 48.6883 -37.0536 72° East  Level FlightAware Approximate
11:40PM 48.7303 -36.8605 72° East  Level FlightAware Approximate
11:41PM 48.7721 -36.6670 72° East  Level FlightAware Approximate
11:42PM 48.8135 -36.4733 72° East  Level FlightAware Approximate
11:43PM 48.8546 -36.2792 72° East  Level FlightAware Approximate
11:44PM 48.8954 -36.0849 72° East  Level FlightAware Approximate
11:45PM 48.9358 -35.8901 72° East  Level FlightAware Approximate
11:46PM 48.9759 -35.6951 73° East  Level FlightAware Approximate
11:47PM 49.0157 -35.4998 73° East  Level FlightAware Approximate
11:48PM 49.0552 -35.3042 73° East  Level FlightAware Approximate
11:49PM 49.0943 -35.1082 73° East  Level FlightAware Approximate
11:50PM 49.1331 -34.9120 73° East  Level FlightAware Approximate
11:51PM 49.1716 -34.7154 73° East  Level FlightAware Approximate
11:52PM 49.2097 -34.5186 73° East  Level FlightAware Approximate
11:53PM 49.2475 -34.3214 74° East  Level FlightAware Approximate
11:54PM 49.2850 -34.1240 74° East  Level FlightAware Approximate
11:55PM 49.3221 -33.9262 74° East  Level FlightAware Approximate
11:56PM 49.3588 -33.7281 74° East  Level FlightAware Approximate
11:57PM 49.3953 -33.5298 74° East  Level FlightAware Approximate
11:58PM 49.4314 -33.3311 74° East  Level FlightAware Approximate
11:59PM 49.4672 -33.1322 74° East  Level FlightAware Approximate
12:00AM 49.5026 -32.9329 75° East  Level FlightAware Approximate
12:01AM 49.5377 -32.7334 75° East  Level FlightAware Approximate
12:02AM 49.5726 -32.5337 74° East  Level FlightAware Approximate
12:03AM 49.6086 -32.3343 74° East  Level FlightAware Approximate
12:04AM 49.6442 -32.1345 75° East  Level FlightAware Approximate
12:05AM 49.6794 -31.9345 75° East  Level FlightAware Approximate
12:06AM 49.7143 -31.7342 75° East  Level FlightAware Approximate
12:07AM 49.7489 -31.5336 75° East  Level FlightAware Approximate
12:08AM 49.7831 -31.3327 75° East  Level FlightAware Approximate
12:09AM 49.8169 -31.1315 75° East  Level FlightAware Approximate
12:10AM 49.8504 -30.9301 75° East  Level FlightAware Approximate
12:11AM 49.8836 -30.7283 76° East  Level FlightAware Approximate
12:12AM 49.9164 -30.5263 76° East  Level FlightAware Approximate
12:13AM 49.9488 -30.3241 76° East  Level FlightAware Approximate
12:14AM 49.9809 -30.1215 76° East  Level FlightAware Approximate
12:15AM 50.0119 -29.9184 77° East  Level FlightAware Approximate
12:16AM 50.0412 -29.7146 77° East  Level FlightAware Approximate
12:17AM 50.0702 -29.5105 77° East  Level FlightAware Approximate
12:18AM 50.0988 -29.3062 78° East  Level FlightAware Approximate
12:19AM 50.1271 -29.1017 78° East  Level FlightAware Approximate
12:20AM 50.1550 -28.8969 78° East  Level FlightAware Approximate
12:21AM 50.1826 -28.6918 78° East  Level FlightAware Approximate
12:22AM 50.2098 -28.4866 78° East  Level FlightAware Approximate
12:23AM 50.2366 -28.2811 78° East  Level FlightAware Approximate
12:24AM 50.2631 -28.0753 79° East  Level FlightAware Approximate
12:25AM 50.2892 -27.8694 79° East  Level FlightAware Approximate
12:26AM 50.3149 -27.6632 79° East  Level FlightAware Approximate
12:27AM 50.3403 -27.4568 79° East  Level FlightAware Approximate
12:28AM 50.3653 -27.2502 79° East  Level FlightAware Approximate
12:29AM 50.3899 -27.0433 79° East  Level FlightAware Approximate
12:30AM 50.4142 -26.8363 79° East  Level FlightAware Approximate
12:31AM 50.4381 -26.6290 80° East  Level FlightAware Approximate
12:32AM 50.4617 -26.4216 80° East  Level FlightAware Approximate
12:33AM 50.4849 -26.2139 80° East  Level FlightAware Approximate
12:34AM 50.5076 -26.0060 80° East  Level FlightAware Approximate
12:35AM 50.5301 -25.7979 80° East  Level FlightAware Approximate
12:36AM 50.5521 -25.5896 80° East  Level FlightAware Approximate
12:37AM 50.5738 -25.3812 81° East  Level FlightAware Approximate
12:38AM 50.5951 -25.1725 81° East  Level FlightAware Approximate
12:39AM 50.6161 -24.9637 81° East  Level FlightAware Approximate
12:40AM 50.6367 -24.7546 81° East  Level FlightAware Approximate
12:41AM 50.6568 -24.5454 81° East  Level FlightAware Approximate
12:42AM 50.6767 -24.3360 81° East  Level FlightAware Approximate
12:43AM 50.6961 -24.1265 82° East  Level FlightAware Approximate
12:44AM 50.7152 -23.9167 82° East  Level FlightAware Approximate
12:45AM 50.7339 -23.7068 82° East  Level FlightAware Approximate
12:46AM 50.7522 -23.4968 82° East  Level FlightAware Approximate
12:47AM 50.7701 -23.2865 82° East  Level FlightAware Approximate
12:48AM 50.7877 -23.0761 82° East  Level FlightAware Approximate
12:49AM 50.8049 -22.8656 83° East  Level FlightAware Approximate
12:50AM 50.8217 -22.6549 83° East  Level FlightAware Approximate
12:51AM 50.8381 -22.4440 83° East  Level FlightAware Approximate
12:52AM 50.8541 -22.2330 83° East  Level FlightAware Approximate
12:53AM 50.8698 -22.0219 83° East  Level FlightAware Approximate
12:54AM 50.8851 -21.8106 83° East  Level FlightAware Approximate
12:55AM 50.8999 -21.5992 84° East  Level FlightAware Approximate
12:56AM 50.9145 -21.3876 84° East  Level FlightAware Approximate
12:57AM 50.9286 -21.1760 84° East  Level FlightAware Approximate
12:58AM 50.9423 -20.9642 84° East  Level FlightAware Approximate
12:59AM 50.9557 -20.7522 84° East  Level FlightAware Approximate
01:00AM 50.9687 -20.5402 84° East  Level FlightAware Approximate
01:01AM 50.9813 -20.3280 85° East  Level FlightAware Approximate
01:02AM 50.9935 -20.1157 85° East  Level FlightAware Approximate
01:03AM 51.0110 -19.9045 80° East  Level FlightAware Approximate
01:04AM 51.0349 -19.6946 80° East  Level FlightAware Approximate
01:05AM 51.0585 -19.4845 80° East  Level FlightAware Approximate
01:06AM 51.0807 -19.2824 80° East  Level FlightAware Approximate
01:07AM 51.1026 -19.0802 80° East  Level FlightAware Approximate
01:08AM 51.1242 -18.8778 80° East  Level FlightAware Approximate
01:09AM 51.1454 -18.6752 80° East  Level FlightAware Approximate
01:10AM 51.1663 -18.4725 81° East  Level FlightAware Approximate
01:11AM 51.1868 -18.2695 81° East  Level FlightAware Approximate
01:12AM 51.2069 -18.0664 81° East  Level FlightAware Approximate
01:13AM 51.2267 -17.8631 81° East  Level FlightAware Approximate
01:14AM 51.2462 -17.6596 81° East  Level FlightAware Approximate
01:15AM 51.2653 -17.4559 81° East  Level FlightAware Approximate
01:16AM 51.2840 -17.2521 82° East  Level FlightAware Approximate
01:17AM 51.3024 -17.0481 82° East  Level FlightAware Approximate
01:18AM 51.3204 -16.8440 82° East  Level FlightAware Approximate
01:19AM 51.3381 -16.6396 82° East  Level FlightAware Approximate
01:20AM 51.3554 -16.4352 82° East  Level FlightAware Approximate
01:21AM 51.3731 -16.2221 82° East  Level FlightAware Approximate
01:22AM 51.3904 -16.0089 83° East  Level FlightAware Approximate
01:23AM 51.4072 -15.7955 83° East  Level FlightAware Approximate
01:24AM 51.4237 -15.5820 83° East  Level FlightAware Approximate
01:25AM 51.4398 -15.3683 83° East  Level FlightAware Approximate
01:26AM 51.4556 -15.1545 83° East  Level FlightAware Approximate
01:27AM 51.4700 -14.9404 85° East  Level FlightAware Approximate
01:28AM 51.4819 -14.7258 85° East  Level FlightAware Approximate
01:29AM 51.4976 -14.5118 83° East  Level FlightAware Approximate
01:30AM 51.5134 -14.2977 83° East  Level FlightAware Approximate
01:31AM 51.5289 -14.0835 83° East  Level FlightAware Approximate
01:32AM 51.5439 -13.8691 83° East  Level FlightAware Approximate
01:33AM 51.5586 -13.6546 84° East  Level FlightAware Approximate
01:34AM 51.5721 -13.4398 85° East  Level FlightAware Approximate
01:35AM 51.5843 -13.2248 85° East  Level FlightAware Approximate
01:36AM 51.5961 -13.0096 85° East  Level FlightAware Approximate
01:37AM 51.6076 -12.7944 85° East  Level FlightAware Approximate
01:38AM 51.6186 -12.5790 85° East  Level FlightAware Approximate
01:38AM 51.4670 -10.8230 85° East 511 588 39,000  Level FlightAware
01:39AM 51.6292 -12.3636 85° East  Level FlightAware Approximate
01:39AM 51.4830 -10.6530 81° East 511 588 39,000  Level FlightAware
01:40AM 51.5010 -10.4530 82° East 510 587 39,000  Level FlightAware
01:41AM 51.5290 -10.1300 82° East 508 585 39,000  Level FlightAware
01:42AM 51.5470 -9.9160 82° East 510 587 39,000 -240 Level FlightAware
01:45AM 51.5620 -9.4274 87° East  Level Estimated
01:46AM 51.5681 -9.2118 87° East  Level Estimated
01:46AM 51.6810 -9.1450 87° East 518 596 38,200  Level FlightAware
01:46AM 51.7020 -8.9800 78° East 518 596 37,500 -2,700 Descending FlightAware
01:47AM 51.7104 -8.9043 78° East 462 532 35,600 -3,720 Descending FlightAware UK
01:47AM 51.7136 -8.8348 86° East 464 534 35,300 3,540 Descending FlightAware UK
01:47AM 51.7140 -8.8240 86° East 519 597 36,900 -780 Climbing FlightAware
01:47AM 51.7196 -8.7425 86° East 462 532 35,000 -3,360 Descending FlightAware UK
01:48AM 51.7242 -8.6730 84° East 464 534 34,800 1,920 Descending FlightAware UK
01:48AM 51.7280 -8.6090 84° East 523 602 36,300 -480 Climbing FlightAware
01:48AM 51.7346 -8.5102 84° East 462 532 34,500 -2,160 Descending FlightAware UK
01:49AM 51.7350 -8.4750 84° East 36,000  Climbing FlightAware
01:49AM 51.7382 -8.3928 84° East 462 532 34,500 -2,760 Descending FlightAware UK
01:49AM 51.7399 -8.3223 88° East 462 532 34,500 2,520 Level FlightAware UK
01:49AM 51.7410 -8.2880 88° East 525 604 36,000  Climbing FlightAware
01:50AM 51.7443 -8.1807 88° East 462 532 34,500 -2,460 Descending FlightAware UK
01:50AM 51.7465 -8.1106 87° East 464 534 34,500  Level FlightAware UK
01:50AM 51.7487 -8.0404 87° East 464 534 34,500  Level FlightAware UK
01:51AM 51.7509 -7.9704 87° East 464 534 34,500  Level FlightAware UK
01:51AM 51.7500 -7.9820 87° East 36,000  Climbing FlightAware
01:51AM 51.7534 -7.8771 87° East 464 534 34,500 -2,580 Descending FlightAware UK
01:51AM 51.7553 -7.8070 88° East 464 534 34,500  Level FlightAware UK
01:52AM 51.7572 -7.7369 87° East 464 534 34,500 3,000 Level FlightAware UK
01:52AM 51.7570 -7.7140 87° East 526 605 36,000  Climbing FlightAware
01:52AM 51.7605 -7.6197 87° East 464 534 34,500 -2,520 Descending FlightAware UK
01:53AM 51.7623 -7.5491 88° East 462 532 34,500  Level FlightAware UK
01:53AM 51.7640 -7.4785 88° East 462 532 34,500  Level FlightAware UK
01:53AM 51.7655 -7.4077 88° East 464 534 34,500 4,260 Level FlightAware UK
01:53AM 51.7650 -7.4070 88° East 529 609 36,000  Climbing FlightAware
01:53AM 51.7670 -7.3368 88° East 466 536 34,500 -2,760 Descending FlightAware UK
01:54AM 51.7685 -7.2658 88° East 464 534 34,500 3,000 Level FlightAware UK
01:54AM 51.7690 -7.2270 88° East 529 609 36,000  Climbing FlightAware
01:54AM 51.7707 -7.1475 88° East 462 532 34,500 -2,520 Descending FlightAware UK
01:55AM 51.7724 -7.0756 88° East 462 532 34,500 4,080 Level FlightAware UK
01:55AM 51.7730 -7.0790 88° East 531 611 36,000  Climbing FlightAware
01:55AM 51.7742 -6.9808 88° East 462 532 34,500 -2,400 Descending FlightAware UK
01:55AM 51.7761 -6.9096 88° East 462 532 34,500 4,500 Level FlightAware UK
01:55AM 51.7760 -6.9080 88° East 532 612 36,000  Climbing FlightAware
01:56AM 51.7777 -6.8384 88° East 464 534 34,500 -2,700 Descending FlightAware UK
01:56AM 51.7791 -6.7671 88° East 462 532 34,500 3,060 Level FlightAware UK
01:56AM 51.7790 -6.7370 88° East 533 613 36,000  Climbing FlightAware
01:56AM 51.7812 -6.6482 88° East 464 534 34,500  Descending FlightAware UK
01:57AM 51.7820 -6.5910 88° East 533 613 36,000  Climbing FlightAware
01:57AM 51.7826 -6.5769 88° East 464 534 34,500 -4,500 Descending FlightAware UK
01:57AM 51.7815 -6.5054 88° East 468 539 34,500  Level FlightAware UK
01:57AM 51.7770 -6.4343 96° East 464 534 34,500 3,000 Level FlightAware UK
01:57AM 51.7760 -6.3940 96° East 531 611 36,000  Climbing FlightAware
01:58AM 51.7725 -6.3159 96° East 464 534 34,500 -2,520 Descending FlightAware UK
01:58AM 51.7696 -6.2449 94° East 464 534 34,500 4,080 Level FlightAware UK
01:58AM 51.7690 -6.2360 94° East 531 611 36,000  Climbing FlightAware
01:58AM 51.7660 -6.1505 94° East 464 534 34,500 -2,400 Descending FlightAware UK
01:59AM 51.7631 -6.0797 94° East 464 534 34,500 4,500 Level FlightAware UK
01:59AM 51.7630 -6.0950 94° East 530 610 36,000  Climbing FlightAware
01:59AM 51.7603 -6.0090 94° East 462 532 34,500 -2,700 Descending FlightAware UK
01:59AM 51.7571 -5.9374 94° East 464 534 34,500 3,060 Level FlightAware UK
01:59AM 51.7550 -5.9020 94° East 530 610 36,000  Climbing FlightAware
02:00AM 51.7517 -5.8194 94° East 464 534 34,500 -2,460 Descending FlightAware UK
02:00AM 51.7485 -5.7487 94° East 464 534 34,500 4,260 Level FlightAware UK
02:00AM 51.7480 -5.7420 94° East 529 609 36,000  Climbing FlightAware
02:00AM 51.7451 -5.6780 94° East 464 534 34,500 -2,760 Descending FlightAware UK
02:01AM 51.7418 -5.6073 94° East 462 532 34,500 3,600 Level FlightAware UK
02:01AM 51.7410 -5.5970 94° East 529 609 36,000  Climbing FlightAware
02:01AM 51.7373 -5.5130 94° East 462 532 34,500 -2,580 Descending FlightAware UK
02:01AM 51.7342 -5.4423 94° East 462 532 34,500 3,180 Level FlightAware UK
02:02AM 51.7330 -5.4190 94° East 530 610 36,000  Climbing FlightAware
02:02AM 51.7285 -5.3243 94° East 462 532 34,500 -2,400 Descending FlightAware UK
02:02AM 51.7249 -5.2536 95° East 464 534 34,500 4,500 Level FlightAware UK
02:02AM 51.7250 -5.2580 95° East 532 612 36,000  Climbing FlightAware
02:03AM 51.7213 -5.1818 95° East 464 534 34,500 -2,700 Descending FlightAware UK
02:03AM 51.7176 -5.1107 95° East 464 534 34,500 3,720 Level FlightAware UK
02:03AM 51.7170 -5.0950 95° East 532 612 36,000  Climbing FlightAware
02:03AM 51.7127 -5.0159 95° East 466 536 34,500 -2,520 Descending FlightAware UK
02:04AM 51.7091 -4.9449 95° East 466 536 34,500 3,300 Level FlightAware UK
02:04AM 51.7080 -4.9210 95° East 530 610 36,000  Climbing FlightAware
02:04AM 51.7041 -4.8505 95° East 466 536 34,500 -2,760 Descending FlightAware UK
02:04AM 51.7003 -4.7799 95° East 466 536 34,500 3,600 Level FlightAware UK
02:04AM 51.6990 -4.7640 95° East 527 606 36,000  Climbing FlightAware
02:05AM 51.6952 -4.6860 95° East 464 534 34,500 -2,940 Descending FlightAware UK
02:05AM 51.6913 -4.6161 95° East 460 529 34,300 2,760 Descending FlightAware UK
02:05AM 51.6900 -4.5860 95° East 520 598 35,800 -360 Climbing FlightAware
02:06AM 51.6837 -4.4785 95° East 450 518 34,100 -480 Descending FlightAware UK
02:06AM 51.6810 -4.4360 95° East 521 600 35,500 -600 Climbing FlightAware
02:06AM 51.6772 -4.3624 95° East 452 520 33,800 -3,120 Descending FlightAware UK
02:06AM 51.6731 -4.2924 95° East 452 520 33,700 3,000 Descending FlightAware UK
02:06AM 51.6710 -4.2560 95° East 527 606 35,200 -600 Climbing FlightAware
02:07AM 51.6662 -4.1747 95° East 452 520 33,400 -3,360 Descending FlightAware UK
02:07AM 51.6619 -4.1043 96° East 452 520 33,100 3,600 Descending FlightAware UK
02:07AM 51.6620 -4.1000 96° East 529 609 34,600 -1,020 Climbing FlightAware
02:07AM 51.6577 -4.0337 96° East 452 520 32,800 -3,720 Descending FlightAware UK
02:08AM 51.6535 -3.9631 95° East 450 518 32,500 3,000 Descending FlightAware UK
02:08AM 51.6520 -3.9430 95° East 529 609 34,000 -1,020 Climbing FlightAware
02:08AM 51.6478 -3.8689 95° East 452 520 32,100 -3,300 Descending FlightAware UK
02:09AM 51.6421 -3.7735 96° East 442 509 31,700 2,400 Descending FlightAware UK
02:09AM 51.6420 -3.7710 96° East 525 604 33,200 -1,020 Climbing FlightAware
02:09AM 51.6375 -3.7034 96° East 434 499 31,400 -3,840 Descending FlightAware UK
02:09AM 51.6332 -3.6365 96° East 422 486 31,100 2,160 Descending FlightAware UK
02:09AM 51.6310 -3.5980 96° East 499 574 32,500 -1,020 Climbing FlightAware
02:10AM 51.6262 -3.5264 96° East 408 470 30,600 -3,540 Descending FlightAware UK
02:10AM 51.6220 -3.4617 96° East 400 460 30,400 3,540 Descending FlightAware UK
02:10AM 51.6220 -3.4590 96° East 485 558 31,900 -1,620 Climbing FlightAware
02:10AM 51.6150 -3.3546 96° East 396 456 29,600 -1,500 Descending FlightAware UK
02:11AM 51.6120 -3.3160 96° East 479 551 30,900 -1,620 Climbing FlightAware
02:11AM 51.6059 -3.2495 96° East 392 451 28,800 -4,440 Descending FlightAware UK
02:11AM 51.5989 -3.1864 100° East 388 447 28,400 1,860 Descending FlightAware UK
02:11AM 51.5940 -3.1590 100° East 467 537 29,700 -1,620 Climbing FlightAware
02:12AM 51.5769 -3.0896 100° East 384 442 27,600 -1,500 Descending FlightAware UK
02:12AM 51.5620 -3.0320 100° East 456 525 28,700 -2,100 Climbing FlightAware
02:13AM 51.5285 -2.9032 100° East 372 428 25,500 -2,400 Descending FlightAware UK
02:13AM 51.5290 -2.9070 100° East 445 512 27,100 -2,520 Climbing FlightAware
02:13AM 51.5098 -2.8315 100° East 364 419 24,500 -4,860 Descending FlightAware UK
02:13AM 51.4959 -2.7783 113° Southeast 364 419 23,800 2,160 Descending FlightAware UK
02:13AM 51.4950 -2.7760 113° Southeast 432 497 25,300 -1,260 Climbing FlightAware
02:14AM 51.4770 -2.7081 113° Southeast 360 414 23,300 -1,200 Descending FlightAware UK
02:14AM 51.4690 -2.6780 113° Southeast 422 486 24,600 -1,440 Climbing FlightAware
02:15AM 51.4441 -2.5882 113° Southeast 354 407 22,300 -1,500 Descending FlightAware UK
02:15AM 51.4380 -2.5680 113° Southeast 419 482 23,600 -1,440 Climbing FlightAware
02:15AM 51.4252 -2.5011 113° Southeast 350 403 21,600 -4,020 Descending FlightAware UK
02:15AM 51.4184 -2.4463 101° East 348 400 21,200 1,500 Descending FlightAware UK
02:16AM 51.4141 -2.4114 101° East 415 478 22,400 -1,380 Climbing FlightAware ADS-B
02:16AM 51.4052 -2.3382 101° East 344 396 20,400 -1,200 Descending FlightAware UK
02:16AM 51.4009 -2.3033 101° East 403 464 21,700 -1,380 Climbing FlightAware ADS-B
02:17AM 51.3924 -2.2336 101° East 338 389 19,600 -1,380 Descending FlightAware UK
02:17AM 51.3896 -2.2127 101° East 400 460 21,000 420 Climbing FlightAware ADS-B
02:17AM 51.3774 -2.1167 101° East 384 442 19,900 -3,780 Descending FlightAware ADS-B
02:18AM 51.3710 -2.0659 101° East 322 371 17,700 -2,160 Descending FlightAware UK
02:18AM 51.3672 -2.0345 101° East 367 422 18,800 120 Climbing FlightAware ADS-B
02:18AM 51.3576 -1.9562 101° East 355 409 17,800 -3,720 Descending FlightAware ADS-B
02:19AM 51.3498 -1.8940 101° East 314 361 15,500 -1,980 Descending FlightAware UK
02:19AM 51.3473 -1.8758 101° East 358 412 16,800 1,380 Climbing FlightAware ADS-B
02:19AM 51.3410 -1.8266 102° East 360 414 16,100 -4,440 Descending FlightAware ADS-B
02:19AM 51.3363 -1.7699 102° East 322 371 13,800 -1,980 Descending FlightAware UK
02:20AM 51.3349 -1.7494 102° East 338 389 15,100 840 Climbing FlightAware ADS-B
02:20AM 51.3311 -1.6873 96° East 330 380 14,300 -1,200 Descending FlightAware ADS-B
02:21AM 51.3302 -1.6122 91° East 313 360 14,000 -300 Descending FlightAware ADS-B
02:21AM 51.3290 -1.5440 92° East 293 337 14,000 -1,860 Level FlightAware ADS-B
02:21AM 51.3284 -1.5049 92° East 268 308 12,500  Descending FlightAware UK
02:22AM 51.3279 -1.4785 92° East 292 336 14,000  Climbing FlightAware ADS-B
02:22AM 51.3273 -1.4401 92° East 266 306 12,500  Descending FlightAware UK
02:22AM 51.3266 -1.4095 92° East 292 336 14,000  Climbing FlightAware ADS-B
02:22AM 51.3261 -1.3755 92° East 266 306 12,500  Descending FlightAware UK
02:23AM 51.3254 -1.3459 92° East 281 323 14,000  Climbing FlightAware ADS-B
02:23AM 51.3249 -1.3136 92° East 256 295 12,500  Descending FlightAware UK
02:23AM 51.3242 -1.2815 92° East 280 322 14,000  Climbing FlightAware ADS-B
02:23AM 51.3234 -1.2388 92° East 254 292 12,500  Descending FlightAware UK
02:24AM 51.3229 -1.2160 92° East 280 322 14,000 -600 Climbing FlightAware ADS-B
02:24AM 51.3222 -1.1772 92° East 256 295 12,200 -600 Descending FlightAware UK
02:24AM 51.3217 -1.1544 92° East 277 319 13,700 -420 Climbing FlightAware ADS-B
02:24AM 51.3210 -1.1158 92° East 254 292 12,000 -420 Descending FlightAware UK
02:25AM 51.3204 -1.0928 92° East 274 315 13,500 -540 Climbing FlightAware ADS-B
02:25AM 51.3193 -1.0424 92° East 254 292 11,700 -600 Descending FlightAware UK
02:25AM 51.3190 -1.0298 92° East 276 318 13,200 -420 Climbing FlightAware ADS-B
02:26AM 51.3181 -0.9814 92° East 254 292 11,500 -420 Descending FlightAware UK
02:26AM 51.3177 -0.9679 92° East 276 318 13,000 2,400 Climbing FlightAware ADS-B
02:26AM 51.3163 -0.9058 92° East 277 319 13,000 -1,800 Level FlightAware ADS-B
02:27AM 51.3153 -0.8591 92° East 254 292 11,400 -240 Descending FlightAware UK
02:27AM 51.3148 -0.8416 92° East 275 316 12,900 1,800 Climbing FlightAware ADS-B
02:27AM 51.3134 -0.7798 92° East 274 315 12,600 -540 Descending FlightAware ADS-B
02:28AM 51.3120 -0.7180 92° East 273 314 12,400 -2,280 Descending FlightAware ADS-B
02:28AM 51.3109 -0.6773 92° East 250 288 10,700 -600 Descending FlightAware UK
02:28AM 51.3104 -0.6548 92° East 273 314 12,100 -420 Climbing FlightAware ADS-B
02:29AM 51.3095 -0.6167 92° East 250 288 10,500 -240 Descending FlightAware UK
02:29AM 51.3089 -0.5942 92° East 273 314 12,000 2,100 Climbing FlightAware ADS-B
02:29AM 51.3073 -0.5316 92° East 271 312 12,000 -2,100 Level FlightAware ADS-B
02:30AM 51.3064 -0.4960 92° East 248 285 10,300 -600 Descending FlightAware UK
02:30AM 51.3057 -0.4711 92° East 271 312 11,700 2,400 Climbing FlightAware ADS-B
02:30AM 51.3045 -0.4332 93° East 270 311 11,600 -3,120 Descending FlightAware ADS-B
02:30AM 51.3022 -0.4012 93° East 246 283 9,900 -600 Descending FlightAware UK
02:31AM 51.3004 -0.3736 93° East 268 308 11,300 2,340 Climbing FlightAware ADS-B
02:31AM 51.2980 -0.3371 96° East 267 307 11,200 -480 Descending FlightAware ADS-B
02:31AM 51.2961 -0.3224 102° East 267 307 11,100 -720 Descending FlightAware ADS-B
02:31AM 51.2911 -0.3055 115° Southeast 263 303 11,000 -360 Descending FlightAware ADS-B
02:31AM 51.2847 -0.2940 131° Southeast 261 300 11,000  Level FlightAware ADS-B
02:32AM 51.2735 -0.2836 150° Southeast 257 296 11,000  Level FlightAware ADS-B
02:32AM 51.2667 -0.2808 166° South 254 292 11,000  Level FlightAware ADS-B
02:32AM 51.2517 -0.2825 184° South 248 285 11,000  Level FlightAware ADS-B
02:32AM 51.2452 -0.2865 201° Southwest 243 280 11,000  Level FlightAware ADS-B
02:32AM 51.2402 -0.2914 212° Southwest 241 277 11,000  Level FlightAware ADS-B
02:32AM 51.2344 -0.3001 223° Southwest 238 274 11,000  Level FlightAware ADS-B
02:32AM 51.2276 -0.3190 240° Southwest 233 268 11,000  Level FlightAware ADS-B
02:32AM 51.2257 -0.3339 259° West 233 268 11,000  Level FlightAware ADS-B
02:33AM 51.2257 -0.3409 270° West 233 268 11,000  Level FlightAware ADS-B
02:33AM 51.2265 -0.3496 278° West 233 268 11,000  Level FlightAware ADS-B
02:33AM 51.2293 -0.3626 289° West 233 268 11,000  Level FlightAware ADS-B
02:33AM 51.2309 -0.3671 300° West 233 268 11,000  Level FlightAware ADS-B
02:33AM 51.2374 -0.3798 309° West 236 272 11,000 -420 Level FlightAware ADS-B
02:33AM 51.2434 -0.3871 323° Northwest 238 274 10,900 -4,680 Descending FlightAware ADS-B
02:33AM 51.2573 -0.4008 323° Northwest 246 283 9,300 -420 Descending FlightAware UK
02:34AM 51.2722 -0.4150 323° Northwest 237 273 10,700 -540 Climbing FlightAware ADS-B
02:34AM 51.2910 -0.4330 323° Northwest 244 281 9,000 -600 Descending FlightAware UK
02:34AM 51.3007 -0.4423 323° Northwest 234 269 10,400 3,900 Climbing FlightAware ADS-B
02:34AM 51.3096 -0.4497 333° Northwest 236 272 10,300 -420 Descending FlightAware ADS-B
02:34AM 51.3148 -0.4522 343° North 238 274 10,300 -420 Level FlightAware ADS-B
02:35AM 51.3265 -0.4534 356° North 247 284 10,200 -420 Descending FlightAware ADS-B
02:35AM 51.3325 -0.4515 11° North 250 288 10,200 -540 Level FlightAware ADS-B
02:35AM 51.3392 -0.4470 23° Northeast 255 293 10,100 -900 Descending FlightAware ADS-B
02:35AM 51.3464 -0.4380 38° Northeast 258 297 10,000 -540 Descending FlightAware ADS-B
02:35AM 51.3500 -0.4311 50° Northeast 259 298 10,000  Level FlightAware ADS-B
02:35AM 51.3536 -0.4199 63° Northeast 261 300 10,000  Level FlightAware ADS-B
02:35AM 51.3559 -0.4030 78° East 263 303 10,000  Level FlightAware ADS-B
02:35AM 51.3557 -0.3941 92° East 263 303 10,000  Level FlightAware ADS-B
02:35AM 51.3552 -0.3883 98° East 262 302 10,000  Level FlightAware ADS-B
02:35AM 51.3521 -0.3748 110° East 260 299 10,000  Level FlightAware ADS-B
02:36AM 51.3479 -0.3653 125° Southeast 256 295 10,000  Level FlightAware ADS-B
02:36AM 51.3424 -0.3573 138° Southeast 254 292 10,000  Level FlightAware ADS-B
02:36AM 51.3364 -0.3510 147° Southeast 253 291 10,000 -3,780 Level FlightAware ADS-B
02:36AM 51.3183 -0.3338 147° Southeast 242 278 8,500  Descending FlightAware UK
02:36AM 51.2995 -0.3156 147° Southeast 253 291 10,000 2,460 Climbing FlightAware ADS-B
02:37AM 51.2829 -0.3001 150° Southeast 252 290 10,000  Level FlightAware ADS-B
02:37AM 51.2756 -0.2957 159° South 249 287 10,000  Level FlightAware ADS-B
02:37AM 51.2545 -0.2972 183° South 238 274 10,000  Level FlightAware ADS-B
02:37AM 51.2505 -0.3002 205° Southwest 235 270 10,000  Level FlightAware ADS-B
02:37AM 51.2459 -0.3051 214° Southwest 231 266 10,000  Level FlightAware ADS-B
02:37AM 51.2386 -0.3180 228° Southwest 227 261 10,000  Level FlightAware ADS-B
02:38AM 51.2349 -0.3306 245° Southwest 224 258 10,000  Level FlightAware ADS-B
02:38AM 51.2333 -0.3441 259° West 224 258 10,000  Level FlightAware ADS-B
02:38AM 51.2333 -0.3490 270° West 224 258 10,000  Level FlightAware ADS-B
02:38AM 51.2337 -0.3553 276° West 225 259 10,000  Level FlightAware ADS-B
02:38AM 51.2348 -0.3634 282° West 225 259 10,000 -780 Level FlightAware ADS-B
02:38AM 51.2362 -0.3690 292° West 227 261 9,900 -900 Descending FlightAware ADS-B
02:38AM 51.2378 -0.3741 297° West 228 262 9,900  Level FlightAware ADS-B
02:38AM 51.2410 -0.3812 306° West 231 266 9,900 -420 Level FlightAware ADS-B
02:38AM 51.2496 -0.3930 319° Northwest 236 272 9,800 -720 Descending FlightAware ADS-B
02:39AM 51.2637 -0.4066 329° Northwest 232 267 9,600 -600 Descending FlightAware ADS-B
02:39AM 51.2791 -0.4214 329° Northwest 230 265 9,500 -360 Descending FlightAware ADS-B
02:39AM 51.2953 -0.4370 329° Northwest 230 265 9,400 -420 Descending FlightAware ADS-B
02:39AM 51.3065 -0.4475 330° Northwest 231 266 9,300 -780 Descending FlightAware ADS-B
02:39AM 51.3096 -0.4496 336° Northwest 233 268 9,200 -1,740 Descending FlightAware ADS-B
02:39AM 51.3146 -0.4521 343° North 234 269 9,100 -900 Descending FlightAware ADS-B
02:39AM 51.3178 -0.4530 349° North 236 272 9,100 -1,020 Level FlightAware ADS-B
02:40AM 51.3267 -0.4527 North 239 275 8,900 -900 Descending FlightAware ADS-B
02:40AM 51.3320 -0.4509 12° North 240 276 8,900 -900 Level FlightAware ADS-B
02:40AM 51.3482 -0.4435 16° North 241 277 8,600 -1,200 Descending FlightAware ADS-B
02:40AM 51.3660 -0.4353 16° North 241 277 8,300 -840 Descending FlightAware ADS-B
02:40AM 51.3795 -0.4287 17° North 240 276 8,200 -300 Descending FlightAware ADS-B
02:41AM 51.3861 -0.4233 27° Northeast 243 280 8,200 -600 Level FlightAware ADS-B
02:41AM 51.3899 -0.4185 38° Northeast 245 282 8,100 -900 Descending FlightAware ADS-B
02:41AM 51.3924 -0.4144 46° Northeast 247 284 8,100  Level FlightAware ADS-B
02:41AM 51.3957 -0.4069 55° Northeast 247 284 8,100 -600 Level FlightAware ADS-B
02:41AM 51.3984 -0.3974 65° Northeast 248 285 8,000 -600 Descending FlightAware ADS-B
02:41AM 51.3995 -0.3901 77° East 249 287 8,000  Level FlightAware ADS-B
02:41AM 51.4000 -0.3838 83° East 250 288 8,000  Level FlightAware ADS-B
02:41AM 51.4001 -0.3757 89° East 250 288 8,000  Level FlightAware ADS-B
02:41AM 51.3991 -0.3458 93° East 250 288 8,000  Level FlightAware ADS-B
02:42AM 51.3976 -0.3070 94° East 250 288 8,000 -540 Level FlightAware ADS-B
02:42AM 51.3964 -0.2778 94° East 251 289 7,700 -1,020 Descending FlightAware ADS-B
02:42AM 51.3951 -0.2496 94° East 249 287 7,500 -1,140 Descending FlightAware ADS-B
02:42AM 51.3935 -0.2187 95° East 247 284 7,100 -1,140 Descending FlightAware ADS-B
02:43AM 51.3919 -0.1892 95° East 246 283 6,900 -900 Descending FlightAware ADS-B
02:43AM 51.3908 -0.1698 95° East 246 283 6,700 -960 Descending FlightAware ADS-B
02:43AM 51.3907 -0.1558 91° East 244 281 6,600 -780 Descending FlightAware ADS-B
02:43AM 51.3912 -0.1417 87° East 242 278 6,500 -840 Descending FlightAware ADS-B
02:43AM 51.3923 -0.1150 86° East 240 276 6,300 -1,020 Descending FlightAware ADS-B
02:44AM 51.3937 -0.0858 86° East 239 275 6,000 -1,020 Descending FlightAware ADS-B
02:44AM 51.3953 -0.0603 84° East 235 270 5,800 -840 Descending FlightAware ADS-B
02:44AM 51.3972 -0.0493 75° East 232 267 5,700 -1,020 Descending FlightAware ADS-B
02:44AM 51.4014 -0.0321 69° East 226 260 5,500 -840 Descending FlightAware ADS-B
02:44AM 51.4069 -0.0149 63° Northeast 215 247 5,400 -720 Descending FlightAware ADS-B
02:45AM 51.4172 -0.0020 38° Northeast 196 226 5,200 -720 Descending FlightAware ADS-B
02:45AM 51.4203 -0.0007 15° North 193 222 5,200 -540 Level FlightAware ADS-B
02:45AM 51.4367 -0.0049 351° North 183 211 5,000 -540 Descending FlightAware ADS-B
02:45AM 51.4439 -0.0187 310° West 184 212 4,900 -540 Descending FlightAware ADS-B
02:45AM 51.4479 -0.0308 298° West 186 214 4,800 -480 Descending FlightAware ADS-B
02:46AM 51.4536 -0.0498 296° West 189 217 4,700 -180 Descending FlightAware ADS-B
02:46AM 51.4608 -0.0739 296° West 188 216 4,700 -180 Level FlightAware ADS-B
02:46AM 51.4670 -0.0946 296° West 187 215 4,600 -660 Descending FlightAware ADS-B
02:47AM 51.4743 -0.1196 295° West 185 213 4,300 -960 Descending FlightAware ADS-B
02:47AM 51.4760 -0.1270 290° West 186 214 4,200 -900 Descending FlightAware ADS-B
02:47AM 51.4778 -0.1472 278° West 187 215 4,000 -4,080 Descending FlightAware ADS-B
02:47AM 51.4782 -0.1692 278° West 188 216 2,100 -1,080 Descending FlightAware UK
02:48AM 51.4780 -0.2130 278° West 174 200 3,100 420 Climbing FlightAware
02:48AM 51.4780 -0.2500 270° West 163 188 2,600 -900 Descending FlightAware
02:49AM 51.4780 -0.2770 270° West 159 183 2,300 -2,760 Descending FlightAware
02:49AM 51.4781 -0.3115 270° West 160 184 300 -3,120 Descending FlightAware UK
02:49AM 51.4779 -0.3332 269° West 158 182 100 1,080 Descending FlightAware UK
02:50AM 51.4780 -0.3620 269° West 145 167 1,200 240 Climbing FlightAware
02:51AM 51.4780 -0.4150 270° West 140 161 600 -600 Descending FlightAware
02:51AM 51.4780 -0.4290 270° West 134 154 400 -360 Descending FlightAware
02:52AM 51.4770 -0.4530 266° West 134 154 400  Level FlightAware